Time;durP1;ratioP1;P1;durP2;ratioP2;P2;SDS_P1;SDS_P2;PMS_P1;PMS_P2;Temp;Humidity;BMP_temperature;BMP_pressure;BME280_temperature;BME280_humidity;BME280_pressure;Samples;Min_cycle;Max_cycle;Signal;HPM_P1;HPM_P2
2021/09/01 00:00:13;;;;;;;11.27;6.80;;;13.90;99.90;;;;;;4124466;28;20100;-62
2021/09/01 00:02:14;;;;;;;10.23;5.87;;;13.90;99.90;;;;;;4125169;28;20046;-64
2021/09/01 00:04:15;;;;;;;11.07;6.28;;;13.90;99.90;;;;;;4125043;28;20104;-63
2021/09/01 00:06:16;;;;;;;10.50;6.07;;;13.90;99.90;;;;;;4124410;28;20019;-62
2021/09/01 00:08:17;;;;;;;11.80;7.40;;;13.90;99.90;;;;;;4124849;28;20100;-62
2021/09/01 00:10:18;;;;;;;9.43;7.80;;;13.90;99.90;;;;;;4124083;28;20758;-63
2021/09/01 00:12:20;;;;;;;14.20;8.07;;;13.80;99.90;;;;;;4125211;28;20088;-62
2021/09/01 00:14:22;;;;;;;12.57;8.30;;;13.80;99.90;;;;;;4124182;28;20038;-62
2021/09/01 00:16:26;;;;;;;14.00;8.47;;;13.70;99.90;;;;;;4125278;28;20030;-63
2021/09/01 00:18:27;;;;;;;16.40;7.93;;;13.70;99.90;;;;;;4124094;28;20042;-63
2021/09/01 00:20:28;;;;;;;10.87;8.40;;;13.60;99.90;;;;;;4124648;28;20050;-62
2021/09/01 00:22:29;;;;;;;14.03;8.07;;;13.60;99.90;;;;;;4123797;28;20046;-62
2021/09/01 00:24:30;;;;;;;11.40;8.57;;;13.70;99.90;;;;;;4125112;28;20112;-62
2021/09/01 00:26:32;;;;;;;18.37;9.30;;;13.60;99.90;;;;;;4123980;28;20092;-63
2021/09/01 00:28:33;;;;;;;11.93;8.03;;;13.60;99.90;;;;;;4125029;28;20038;-63
2021/09/01 00:30:35;;;;;;;12.60;8.57;;;13.60;99.90;;;;;;4123335;28;20478;-62
2021/09/01 00:32:36;;;;;;;11.90;8.73;;;13.50;99.90;;;;;;4124334;28;20533;-63
2021/09/01 00:34:37;;;;;;;13.53;8.57;;;13.50;99.90;;;;;;4124164;28;20560;-63
2021/09/01 00:36:38;;;;;;;9.67;7.60;;;13.40;99.90;;;;;;4123708;28;20057;-62
2021/09/01 00:38:40;;;;;;;14.97;8.40;;;13.40;99.90;;;;;;4124475;28;20031;-63
2021/09/01 00:40:41;;;;;;;12.63;7.67;;;13.40;99.90;;;;;;4123052;28;20026;-63
2021/09/01 00:42:42;;;;;;;14.53;8.87;;;13.50;99.90;;;;;;4125004;28;20458;-63
2021/09/01 00:44:46;;;;;;;9.87;8.00;;;13.50;99.90;;;;;;4123444;28;20046;-63
2021/09/01 00:46:48;;;;;;;16.53;8.57;;;13.50;99.90;;;;;;4124673;28;20499;-65
2021/09/01 00:48:53;;;;;;;7.70;6.70;;;13.50;99.90;;;;;;4123642;28;20042;-62
2021/09/01 00:50:58;;;;;;;15.63;8.30;;;13.50;99.90;;;;;;4125068;28;20084;-62
2021/09/01 00:52:59;;;;;;;12.43;7.33;;;13.50;99.90;;;;;;4124104;28;20109;-63
2021/09/01 00:55:02;;;;;;;11.07;6.53;;;13.50;99.90;;;;;;4124677;28;20089;-63
2021/09/01 00:57:05;;;;;;;8.43;6.20;;;13.50;99.90;;;;;;4123669;28;21265;-62
2021/09/01 00:59:06;;;;;;;7.93;6.03;;;13.50;99.90;;;;;;4124559;28;20077;-62
2021/09/01 01:01:16;;;;;;;7.27;5.37;;;13.50;99.90;;;;;;4123316;28;20100;-63
2021/09/01 01:03:18;;;;;;;9.80;6.15;;;13.50;99.90;;;;;;4125367;28;20042;-62
2021/09/01 01:05:19;;;;;;;8.67;5.77;;;13.50;99.90;;;;;;4123144;28;20046;-62
2021/09/01 01:07:21;;;;;;;8.00;5.97;;;13.50;99.90;;;;;;4124615;28;20426;-63
2021/09/01 01:09:22;;;;;;;12.30;5.80;;;13.50;99.90;;;;;;4124050;28;20022;-64
2021/09/01 01:11:23;;;;;;;10.77;5.50;;;13.40;99.90;;;;;;4124535;28;20101;-64
2021/09/01 01:13:28;;;;;;;8.57;5.13;;;13.40;99.90;;;;;;4125658;28;20052;-62
2021/09/01 01:15:30;;;;;;;10.37;5.60;;;13.40;99.90;;;;;;4126782;28;20089;-62
2021/09/01 01:17:31;;;;;;;9.53;6.20;;;13.40;99.90;;;;;;4127525;28;20088;-62
2021/09/01 01:19:35;;;;;;;8.57;5.40;;;13.40;99.90;;;;;;4126432;28;20026;-62
2021/09/01 01:21:36;;;;;;;8.63;5.53;;;13.40;99.90;;;;;;4127427;28;20084;-62
2021/09/01 01:23:38;;;;;;;9.80;6.40;;;13.40;99.90;;;;;;4125970;28;20367;-63
2021/09/01 01:25:40;;;;;;;8.53;5.57;;;13.40;99.90;;;;;;4127377;28;20501;-63
2021/09/01 01:27:43;;;;;;;8.87;5.83;;;13.40;99.90;;;;;;4126807;28;20030;-62
2021/09/01 01:29:44;;;;;;;8.00;6.90;;;13.40;99.90;;;;;;4127019;28;20089;-62
2021/09/01 01:31:45;;;;;;;12.40;7.27;;;13.40;99.90;;;;;;4126442;28;20102;-63
2021/09/01 01:33:46;;;;;;;9.37;7.23;;;13.40;99.90;;;;;;4128131;28;20062;-62
2021/09/01 01:35:48;;;;;;;12.53;9.23;;;13.40;99.90;;;;;;4126405;28;20038;-63
2021/09/01 01:37:50;;;;;;;12.60;8.47;;;13.40;99.90;;;;;;4127746;28;20088;-63
2021/09/01 01:39:51;;;;;;;11.40;6.80;;;13.30;99.90;;;;;;4125963;28;20081;-62
2021/09/01 01:41:52;;;;;;;11.00;7.80;;;13.40;99.90;;;;;;4126958;28;20794;-63
2021/09/01 01:43:53;;;;;;;12.47;7.50;;;13.30;99.90;;;;;;4126707;28;20073;-62
2021/09/01 01:45:54;;;;;;;11.47;6.60;;;13.40;99.90;;;;;;4126543;28;20026;-63
2021/09/01 01:47:55;;;;;;;13.07;7.57;;;13.40;99.90;;;;;;4126730;28;20093;-63
2021/09/01 01:49:57;;;;;;;9.27;7.07;;;13.40;99.90;;;;;;4126172;28;20093;-63
2021/09/01 01:51:58;;;;;;;10.07;6.80;;;13.40;99.90;;;;;;4127036;28;20101;-64
2021/09/01 01:54:02;;;;;;;10.33;6.40;;;13.40;99.90;;;;;;4125820;28;20104;-63
2021/09/01 01:56:03;;;;;;;11.23;7.33;;;13.40;99.90;;;;;;4127235;28;20076;-63
2021/09/01 01:58:04;;;;;;;8.93;6.73;;;13.40;99.90;;;;;;4125515;28;20109;-63
2021/09/01 02:00:07;;;;;;;11.73;7.40;;;13.40;99.90;;;;;;4126867;28;20031;-63
2021/09/01 02:02:08;;;;;;;14.63;6.07;;;13.40;99.90;;;;;;4125876;28;20097;-62
2021/09/01 02:04:09;;;;;;;7.27;5.57;;;13.40;99.90;;;;;;4127521;28;20069;-64
2021/09/01 02:06:10;;;;;;;9.10;5.63;;;13.40;99.90;;;;;;4126030;28;20034;-62
2021/09/01 02:08:11;;;;;;;11.07;6.03;;;13.40;99.90;;;;;;4127151;28;20081;-63
2021/09/01 02:10:12;;;;;;;7.50;5.77;;;13.40;99.90;;;;;;4125727;28;20069;-63
2021/09/01 02:12:13;;;;;;;9.10;5.30;;;13.30;99.90;;;;;;4126617;28;20042;-65
2021/09/01 02:14:14;;;;;;;8.27;5.50;;;13.30;99.90;;;;;;4125651;28;20383;-62
2021/09/01 02:16:15;;;;;;;8.97;5.30;;;13.40;99.90;;;;;;4125927;28;20030;-62
2021/09/01 02:18:17;;;;;;;8.80;6.80;;;13.30;99.90;;;;;;4126268;28;20077;-63
2021/09/01 02:20:18;;;;;;;11.23;6.43;;;13.30;99.90;;;;;;4125819;28;20067;-63
2021/09/01 02:22:20;;;;;;;9.87;6.03;;;13.20;99.90;;;;;;4126434;28;20041;-63
2021/09/01 02:24:21;;;;;;;9.60;6.57;;;13.20;99.90;;;;;;4124678;28;20034;-63
2021/09/01 02:26:22;;;;;;;11.70;6.73;;;13.20;99.90;;;;;;4126920;28;20583;-63
2021/09/01 02:28:23;;;;;;;9.93;6.37;;;13.20;99.90;;;;;;4125549;28;20474;-63
2021/09/01 02:30:24;;;;;;;11.13;8.10;;;13.20;99.90;;;;;;4126843;28;20046;-63
2021/09/01 02:32:25;;;;;;;8.60;7.30;;;13.20;99.90;;;;;;4125624;28;20109;-63
2021/09/01 02:34:27;;;;;;;12.40;8.00;;;13.10;99.90;;;;;;4127152;28;20088;-62
2021/09/01 02:36:28;;;;;;;12.23;8.33;;;13.10;99.90;;;;;;4125564;28;20101;-63
2021/09/01 02:38:29;;;;;;;11.70;8.07;;;13.20;99.90;;;;;;4126032;28;20088;-62
2021/09/01 02:40:31;;;;;;;14.37;8.17;;;13.20;99.90;;;;;;4124806;28;20030;-62
2021/09/01 02:42:32;;;;;;;9.47;6.97;;;13.20;99.90;;;;;;4125979;28;20097;-64
2021/09/01 02:44:33;;;;;;;9.27;5.90;;;13.20;99.90;;;;;;4125177;28;20053;-62
2021/09/01 02:46:35;;;;;;;10.43;5.53;;;13.20;99.90;;;;;;4125999;28;20278;-64
2021/09/01 02:48:36;;;;;;;8.87;5.83;;;13.20;99.90;;;;;;4125588;28;20089;-62
2021/09/01 02:50:37;;;;;;;9.13;6.03;;;13.30;99.90;;;;;;4125379;28;20092;-63
2021/09/01 02:52:38;;;;;;;12.50;5.50;;;13.30;99.90;;;;;;4125555;28;20096;-62
2021/09/01 02:54:39;;;;;;;9.70;5.47;;;13.30;99.90;;;;;;4124500;28;20038;-62
2021/09/01 02:56:40;;;;;;;15.43;6.10;;;13.30;99.90;;;;;;4126069;28;20517;-63
2021/09/01 02:58:41;;;;;;;9.97;6.03;;;13.30;99.90;;;;;;4124659;28;20062;-63
2021/09/01 03:00:43;;;;;;;11.83;6.20;;;13.40;99.90;;;;;;4125591;28;20108;-63
2021/09/01 03:02:44;;;;;;;5.97;4.63;;;13.40;99.90;;;;;;4124631;28;20066;-63
2021/09/01 03:04:45;;;;;;;10.23;5.13;;;13.40;99.90;;;;;;4126390;28;20041;-64
2021/09/01 03:06:46;;;;;;;8.53;5.00;;;13.40;99.90;;;;;;4125005;28;20081;-62
2021/09/01 03:08:47;;;;;;;5.27;4.27;;;13.40;99.90;;;;;;4125988;28;20109;-64
2021/09/01 03:10:48;;;;;;;5.73;4.10;;;13.30;99.90;;;;;;4124986;28;20047;-62
2021/09/01 03:12:49;;;;;;;4.97;4.47;;;13.30;99.90;;;;;;4126270;28;20430;-62
2021/09/01 03:14:50;;;;;;;10.67;4.10;;;13.30;99.90;;;;;;4124568;28;20120;-63
2021/09/01 03:16:51;;;;;;;7.60;3.67;;;13.20;99.90;;;;;;4124950;28;20026;-64
2021/09/01 03:18:53;;;;;;;6.63;4.00;;;13.20;99.90;;;;;;4122069;28;20049;-63
2021/09/01 03:20:54;;;;;;;4.10;3.40;;;13.30;99.90;;;;;;4125001;28;20030;-66
2021/09/01 03:22:55;;;;;;;4.37;3.73;;;13.30;99.90;;;;;;4125500;28;20489;-62
2021/09/01 03:24:56;;;;;;;6.67;3.53;;;13.30;99.90;;;;;;4124384;28;20050;-62
2021/09/01 03:26:57;;;;;;;6.73;3.60;;;13.30;99.90;;;;;;4125955;28;20098;-64
2021/09/01 03:28:59;;;;;;;7.43;3.50;;;13.30;99.90;;;;;;4124126;28;20057;-63
2021/09/01 03:31:00;;;;;;;7.47;3.43;;;13.30;99.90;;;;;;4125152;28;20096;-63
2021/09/01 03:33:02;;;;;;;6.43;2.90;;;13.30;99.90;;;;;;4124180;28;20038;-63
2021/09/01 03:35:04;;;;;;;4.23;2.93;;;13.30;99.90;;;;;;4125814;28;20644;-63
2021/09/01 03:37:05;;;;;;;4.37;2.97;;;13.40;99.90;;;;;;4123973;28;20050;-62
2021/09/01 03:39:06;;;;;;;4.60;3.17;;;13.40;99.90;;;;;;4125907;28;20109;-62
2021/09/01 03:41:07;;;;;;;4.43;2.80;;;13.40;99.90;;;;;;4123634;28;20038;-63
2021/09/01 03:43:09;;;;;;;3.87;3.47;;;13.40;99.90;;;;;;4123880;28;20039;-63
2021/09/01 03:45:11;;;;;;;6.57;3.00;;;13.40;99.90;;;;;;4139132;28;20069;-62
2021/09/01 03:47:12;;;;;;;5.13;3.23;;;13.50;99.90;;;;;;4123483;28;20042;-63
2021/09/01 03:49:17;;;;;;;5.07;3.43;;;13.50;99.90;;;;;;4124556;28;20031;-62
2021/09/01 03:51:18;;;;;;;8.33;3.90;;;13.50;99.90;;;;;;4124163;28;20564;-63
2021/09/01 03:53:20;;;;;;;4.80;3.97;;;13.50;99.90;;;;;;4124597;28;20034;-63
2021/09/01 03:55:21;;;;;;;6.00;4.60;;;13.50;99.90;;;;;;4122985;28;20049;-63
2021/09/01 03:57:22;;;;;;;5.87;4.80;;;13.50;99.90;;;;;;4124907;28;20108;-62
2021/09/01 03:59:23;;;;;;;6.07;4.87;;;13.40;99.90;;;;;;4124102;28;20158;-63
2021/09/01 04:01:24;;;;;;;5.87;4.63;;;13.40;99.90;;;;;;4121365;28;20467;-62
2021/09/01 04:03:25;;;;;;;7.40;3.87;;;13.40;99.90;;;;;;4124586;28;20042;-63
2021/09/01 04:05:26;;;;;;;7.23;4.20;;;13.40;99.90;;;;;;4125823;28;20038;-62
2021/09/01 04:07:27;;;;;;;4.77;3.97;;;13.40;99.90;;;;;;4123938;28;20410;-62
2021/09/01 04:09:29;;;;;;;4.73;4.10;;;13.40;99.90;;;;;;4125052;28;20047;-61
2021/09/01 04:11:30;;;;;;;5.63;3.70;;;13.40;99.90;;;;;;4123259;28;20030;-62
2021/09/01 04:13:32;;;;;;;9.43;4.10;;;13.40;99.90;;;;;;4124879;28;20442;-63
2021/09/01 04:15:33;;;;;;;11.03;5.57;;;13.40;99.90;;;;;;4122648;28;20034;-62
2021/09/01 04:17:35;;;;;;;4.73;3.53;;;13.40;99.90;;;;;;4124187;28;20054;-62
2021/09/01 04:19:36;;;;;;;3.83;3.20;;;13.40;99.90;;;;;;4123649;28;20581;-63
2021/09/01 04:21:37;;;;;;;5.80;3.23;;;13.50;99.90;;;;;;4123931;28;20089;-63
2021/09/01 04:23:39;;;;;;;6.60;4.50;;;13.50;99.90;;;;;;4124674;28;20037;-63
2021/09/01 04:25:40;;;;;;;6.87;3.40;;;13.50;99.90;;;;;;4123704;28;20038;-63
2021/09/01 04:27:41;;;;;;;6.33;3.70;;;13.50;99.90;;;;;;4124947;28;20049;-63
2021/09/01 04:29:42;;;;;;;6.33;2.97;;;13.50;99.90;;;;;;4123307;28;20135;-63
2021/09/01 04:31:43;;;;;;;4.63;3.00;;;13.60;99.90;;;;;;4125003;28;20035;-63
2021/09/01 04:33:45;;;;;;;4.10;3.63;;;13.50;99.90;;;;;;4122149;28;20445;-63
2021/09/01 04:35:46;;;;;;;3.80;2.63;;;13.60;99.90;;;;;;4124557;28;20092;-63
2021/09/01 04:37:47;;;;;;;3.33;2.50;;;13.60;99.90;;;;;;4122437;28;20110;-63
2021/09/01 04:39:48;;;;;;;10.00;2.90;;;13.70;99.90;;;;;;4108974;28;20034;-63
2021/09/01 04:41:50;;;;;;;9.50;2.87;;;13.70;99.90;;;;;;4122074;28;20100;-64
2021/09/01 04:43:52;;;;;;;4.67;2.80;;;13.70;99.90;;;;;;4123251;28;20104;-62
2021/09/01 04:45:53;;;;;;;5.50;2.77;;;13.80;99.90;;;;;;4121370;28;20069;-63
2021/09/01 04:47:54;;;;;;;3.77;2.60;;;13.80;99.90;;;;;;4123351;28;20054;-63
2021/09/01 04:49:55;;;;;;;3.83;2.30;;;13.90;99.90;;;;;;4125992;28;20050;-63
2021/09/01 04:51:56;;;;;;;2.97;1.90;;;14.00;99.90;;;;;;4125885;28;20042;-63
2021/09/01 04:53:57;;;;;;;3.27;2.10;;;14.00;99.90;;;;;;4129924;28;20054;-63
2021/09/01 04:55:59;;;;;;;3.00;2.13;;;14.00;99.90;;;;;;4125523;28;20113;-63
2021/09/01 04:58:00;;;;;;;3.20;2.05;;;14.10;99.90;;;;;;4126403;28;20391;-62
2021/09/01 05:00:05;;;;;;;2.28;1.65;;;14.10;99.90;;;;;;4124536;28;20081;-62
2021/09/01 05:02:06;;;;;;;2.28;1.60;;;14.10;99.90;;;;;;4126592;28;20038;-66
2021/09/01 05:04:07;;;;;;;3.40;1.60;;;14.10;99.90;;;;;;4125143;28;20089;-61
2021/09/01 05:06:08;;;;;;;3.30;2.25;;;14.10;99.90;;;;;;4125966;28;20046;-63
2021/09/01 05:08:09;;;;;;;2.40;1.30;;;14.10;99.90;;;;;;4124468;28;20097;-62
2021/09/01 05:10:11;;;;;;;2.55;1.30;;;14.10;99.90;;;;;;4125826;28;20042;-63
2021/09/01 05:12:12;;;;;;;3.65;1.67;;;14.10;99.90;;;;;;4124149;28;20450;-64
2021/09/01 05:14:13;;;;;;;2.90;1.10;;;14.10;99.90;;;;;;4124629;28;20073;-62
2021/09/01 05:16:14;;;;;;;0.63;0.50;;;14.10;99.90;;;;;;4125936;28;20100;-63
2021/09/01 05:18:16;;;;;;;3.05;1.00;;;14.10;99.90;;;;;;4126129;28;20085;-64
2021/09/01 05:20:17;;;;;;;5.07;0.80;;;14.10;99.90;;;;;;4125334;28;20176;-62
2021/09/01 05:22:20;;;;;;;3.10;0.87;;;14.10;99.90;;;;;;4126348;28;20100;-63
2021/09/01 05:24:42;;;;;;;0.90;0.40;;;14.10;99.90;;;;;;4126364;28;20149;-63
2021/09/01 05:26:44;;;;;;;1.23;0.80;;;14.10;99.90;;;;;;4126520;28;20560;-64
2021/09/01 05:28:48;;;;;;;1.38;0.90;;;14.10;99.90;;;;;;4125866;28;20089;-63
2021/09/01 05:30:50;;;;;;;1.38;0.85;;;14.10;99.90;;;;;;4125822;28;20042;-63
2021/09/01 05:32:55;;;;;;;1.00;0.73;;;14.20;99.90;;;;;;4126693;28;20454;-64
2021/09/01 05:35:00;;;;;;;1.02;0.70;;;14.30;99.90;;;;;;4125736;28;20038;-63
2021/09/01 05:37:03;;;;;;;1.73;1.13;;;14.30;99.90;;;;;;4126506;28;20034;-63
2021/09/01 05:39:05;;;;;;;2.15;0.75;;;14.30;99.90;;;;;;4124686;28;20093;-63
2021/09/01 05:41:07;;;;;;;2.00;0.63;;;14.30;99.90;;;;;;4126911;28;20092;-63
2021/09/01 05:43:10;;;;;;;1.60;0.60;;;14.20;99.90;;;;;;4125738;28;20034;-62
2021/09/01 05:45:11;;;;;;;3.03;0.60;;;14.20;99.90;;;;;;4126775;28;20054;-65
2021/09/01 05:47:14;;;;;;;1.20;0.60;;;14.20;99.90;;;;;;4125545;28;20414;-63
2021/09/01 05:49:16;;;;;;;0.50;0.50;;;14.30;99.90;;;;;;4126537;28;20438;-63
2021/09/01 05:51:17;;;;;;;2.80;0.50;;;14.40;99.90;;;;;;4125283;28;20092;-64
2021/09/01 05:53:20;;;;;;;0.88;0.35;;;14.30;99.90;;;;;;4126574;28;20097;-64
2021/09/01 05:55:23;;;;;;;0.30;0.30;;;14.40;99.90;;;;;;4107169;28;20101;-64
2021/09/01 05:57:37;;;;;;;1.02;0.52;;;14.40;99.90;;;;;;4126040;28;20097;-65
2021/09/01 06:00:15;;;;;;;0.55;0.20;;;14.40;99.90;;;;;;4124613;28;20089;-64
2021/09/01 06:02:20;;;;;;;0.60;0.40;;;14.40;99.90;;;;;;4117339;28;20051;-63
2021/09/01 06:04:24;;;;;;;1.40;0.30;;;14.50;99.90;;;;;;4125389;28;20628;-64
2021/09/01 06:06:27;;;;;;;0.47;0.30;;;14.50;99.90;;;;;;4126486;28;20573;-64
2021/09/01 06:08:33;;;;;;;0.98;0.75;;;14.50;99.90;;;;;;4125494;28;20022;-64
2021/09/01 06:10:37;;;;;;;1.40;0.57;;;14.50;99.90;;;;;;4126630;28;20022;-64
2021/09/01 06:12:42;;;;;;;0.40;0.40;;;14.60;99.90;;;;;;4125060;28;20038;-64
2021/09/01 06:14:43;;;;;;;0.65;0.50;;;14.60;99.90;;;;;;4126185;28;20093;-64
2021/09/01 06:16:44;;;;;;;0.70;0.40;;;14.70;99.90;;;;;;4125167;28;20026;-65
2021/09/01 06:18:46;;;;;;;0.55;0.43;;;14.70;99.90;;;;;;4126036;28;20050;-64
2021/09/01 06:20:47;;;;;;;1.63;0.40;;;14.80;99.90;;;;;;4125531;28;20069;-64
2021/09/01 06:22:48;;;;;;;0.50;0.40;;;14.80;99.90;;;;;;4125390;28;20097;-64
2021/09/01 06:24:49;;;;;;;0.93;0.60;;;14.90;99.90;;;;;;4126431;28;20300;-64
2021/09/01 06:26:51;;;;;;;0.85;0.57;;;14.90;99.90;;;;;;4124710;28;20058;-64
2021/09/01 06:28:52;;;;;;;1.40;0.40;;;15.10;99.90;;;;;;4125584;28;20539;-64
2021/09/01 06:30:53;;;;;;;1.77;0.47;;;15.10;99.90;;;;;;4123752;28;20073;-65
2021/09/01 06:32:54;;;;;;;1.85;0.65;;;15.10;99.90;;;;;;4125973;28;20038;-64
2021/09/01 06:34:55;;;;;;;2.10;1.50;;;15.20;99.90;;;;;;4124958;28;20089;-64
2021/09/01 06:36:56;;;;;;;4.70;0.80;;;15.30;99.90;;;;;;4126172;28;20081;-64
2021/09/01 06:38:57;;;;;;;2.30;0.80;;;15.40;99.90;;;;;;4124634;28;20570;-63
2021/09/01 06:40:58;;;;;;;0.55;0.40;;;15.40;99.90;;;;;;4126159;28;20545;-63
2021/09/01 06:43:00;;;;;;;1.15;0.50;;;15.50;99.90;;;;;;4124499;28;20046;-63
2021/09/01 06:45:01;;;;;;;6.93;0.98;;;15.70;99.90;;;;;;4126217;28;20042;-64
2021/09/01 06:47:04;;;;;;;4.65;2.83;;;15.90;99.90;;;;;;4124265;28;20060;-63
2021/09/01 06:49:05;;;;;;;1.75;0.88;;;16.10;99.90;;;;;;4125157;28;20561;-63
2021/09/01 06:51:06;;;;;;;0.82;0.50;;;16.20;99.90;;;;;;4124254;28;20101;-63
2021/09/01 06:53:08;;;;;;;0.68;0.60;;;16.40;99.90;;;;;;4125094;28;20101;-64
2021/09/01 06:55:11;;;;;;;2.55;0.75;;;16.40;99.90;;;;;;4124855;28;20434;-63
2021/09/01 06:57:12;;;;;;;1.13;0.75;;;16.50;99.90;;;;;;4124936;28;20034;-64
2021/09/01 06:59:13;;;;;;;0.82;0.73;;;16.50;99.90;;;;;;4125216;28;20039;-64
2021/09/01 07:01:14;;;;;;;1.73;0.55;;;16.50;99.90;;;;;;4124395;28;20038;-63
2021/09/01 07:03:15;;;;;;;2.55;0.90;;;16.40;99.90;;;;;;4125809;28;20093;-63
2021/09/01 07:05:18;;;;;;;0.73;0.60;;;16.40;99.90;;;;;;4124399;28;20046;-64
2021/09/01 07:07:19;;;;;;;0.70;0.70;;;16.30;99.90;;;;;;4125230;28;20073;-64
2021/09/01 07:09:20;;;;;;;0.68;0.55;;;16.40;99.90;;;;;;4122815;28;20080;-63
2021/09/01 07:11:21;;;;;;;1.25;0.80;;;16.40;99.90;;;;;;4124640;28;20085;-64
2021/09/01 07:13:22;;;;;;;2.97;0.70;;;16.40;99.90;;;;;;4124401;28;20100;-63
2021/09/01 07:15:23;;;;;;;1.20;0.70;;;16.40;99.90;;;;;;4124767;28;20038;-64
2021/09/01 07:17:25;;;;;;;0.77;0.77;;;16.40;99.90;;;;;;4123725;28;20042;-63
2021/09/01 07:19:26;;;;;;;3.30;0.85;;;16.50;99.90;;;;;;4125037;28;20038;-64
2021/09/01 07:21:27;;;;;;;0.90;0.90;;;16.50;99.90;;;;;;4124508;28;20046;-64
2021/09/01 07:23:28;;;;;;;1.00;0.90;;;16.50;99.90;;;;;;4124987;28;20521;-64
2021/09/01 07:25:32;;;;;;;0.75;0.70;;;16.50;99.90;;;;;;4123950;28;20046;-64
2021/09/01 07:27:33;;;;;;;0.90;0.50;;;16.50;99.90;;;;;;4124154;28;20088;-64
2021/09/01 07:29:34;;;;;;;1.73;0.90;;;16.60;99.90;;;;;;4124083;28;20042;-64
2021/09/01 07:31:36;;;;;;;0.73;0.73;;;16.60;99.90;;;;;;4123905;28;20528;-64
2021/09/01 07:33:37;;;;;;;1.40;0.52;;;16.80;99.90;;;;;;4125117;28;20026;-64
2021/09/01 07:35:38;;;;;;;1.88;1.27;;;16.80;99.90;;;;;;4124305;28;20171;-65
2021/09/01 07:37:47;;;;;;;1.60;0.70;;;16.80;99.90;;;;;;4124777;28;20038;-64
2021/09/01 07:39:48;;;;;;;1.90;0.73;;;16.90;99.90;;;;;;4123719;28;21026;-64
2021/09/01 07:41:49;;;;;;;1.35;0.50;;;16.90;99.90;;;;;;4124861;28;20096;-62
2021/09/01 07:43:50;;;;;;;0.75;0.57;;;17.00;99.90;;;;;;4123697;28;20031;-65
2021/09/01 07:45:52;;;;;;;0.70;0.70;;;17.10;99.90;;;;;;4124370;28;20088;-64
2021/09/01 07:47:54;;;;;;;1.17;0.63;;;17.10;99.90;;;;;;4124244;28;20027;-65
2021/09/01 07:49:55;;;;;;;3.70;0.73;;;17.10;99.90;;;;;;4125128;28;20030;-64
2021/09/01 07:51:57;;;;;;;1.10;0.77;;;17.10;99.90;;;;;;4122899;28;20046;-64
2021/09/01 07:53:58;;;;;;;1.00;0.88;;;17.10;99.90;;;;;;4124577;28;20092;-65
2021/09/01 07:55:59;;;;;;;1.00;0.85;;;17.10;99.90;;;;;;4123537;28;20077;-65
2021/09/01 07:58:00;;;;;;;3.95;1.05;;;17.20;99.90;;;;;;4124362;28;20109;-64
2021/09/01 08:00:02;;;;;;;1.42;0.77;;;17.40;99.90;;;;;;4124026;28;20069;-64
2021/09/01 08:02:03;;;;;;;1.98;0.77;;;17.50;99.90;;;;;;4123613;28;20092;-63
2021/09/01 08:04:05;;;;;;;0.90;0.73;;;17.60;99.90;;;;;;4124489;28;20103;-65
2021/09/01 08:06:07;;;;;;;3.38;0.70;;;17.70;99.90;;;;;;4123819;28;20046;-64
2021/09/01 08:08:08;;;;;;;1.10;0.80;;;17.70;99.90;;;;;;4124659;28;20448;-65
2021/09/01 08:10:10;;;;;;;0.65;0.65;;;17.70;99.90;;;;;;4123118;28;20030;-64
2021/09/01 08:12:11;;;;;;;1.05;0.82;;;17.80;99.90;;;;;;4124642;28;20034;-64
2021/09/01 08:14:12;;;;;;;1.30;0.60;;;17.80;99.90;;;;;;4123466;28;20042;-65
2021/09/01 08:16:13;;;;;;;2.45;0.60;;;17.70;99.90;;;;;;4123934;28;20350;-65
2021/09/01 08:18:14;;;;;;;0.68;0.68;;;17.70;99.90;;;;;;4122879;28;20038;-64
2021/09/01 08:20:16;;;;;;;1.85;1.10;;;17.70;99.90;;;;;;4124666;28;20187;-64
2021/09/01 08:22:17;;;;;;;2.20;0.70;;;17.80;99.90;;;;;;4122970;28;20050;-64
2021/09/01 08:24:18;;;;;;;1.30;0.40;;;17.80;99.90;;;;;;4124142;28;20034;-64
2021/09/01 08:26:19;;;;;;;1.00;0.60;;;17.90;99.90;;;;;;4123290;28;20194;-64
2021/09/01 08:28:20;;;;;;;0.55;0.52;;;18.00;99.90;;;;;;4123759;28;20446;-65
2021/09/01 08:30:21;;;;;;;3.03;0.63;;;18.20;99.90;;;;;;4123677;28;20438;-64
2021/09/01 08:32:23;;;;;;;1.33;0.68;;;18.20;99.90;;;;;;4123191;28;20050;-64
2021/09/01 08:34:24;;;;;;;1.45;0.60;;;18.20;99.90;;;;;;4124100;28;20042;-65
2021/09/01 08:36:25;;;;;;;0.40;0.40;;;18.30;99.90;;;;;;4123518;28;20120;-64
2021/09/01 08:38:26;;;;;;;0.80;0.50;;;18.50;99.90;;;;;;4123933;28;20137;-64
2021/09/01 08:40:27;;;;;;;1.52;0.60;;;18.40;99.90;;;;;;4122194;28;20105;-64
2021/09/01 08:42:29;;;;;;;0.90;0.60;;;18.60;99.90;;;;;;4124416;28;20640;-64
2021/09/01 08:44:30;;;;;;;0.60;0.60;;;18.50;99.90;;;;;;4122842;28;20109;-64
2021/09/01 08:46:33;;;;;;;0.68;0.63;;;18.60;99.90;;;;;;4123772;28;20058;-65
2021/09/01 08:48:39;;;;;;;1.45;0.70;;;18.60;99.90;;;;;;4122955;28;20414;-64
2021/09/01 08:50:41;;;;;;;13.82;6.43;;;18.70;99.90;;;;;;4123861;28;20622;-64
2021/09/01 08:52:42;;;;;;;0.80;0.70;;;18.70;99.90;;;;;;4123183;28;20041;-65
2021/09/01 08:54:43;;;;;;;0.98;0.60;;;18.70;99.90;;;;;;4124068;28;20086;-64
2021/09/01 08:56:44;;;;;;;0.73;0.73;;;18.90;99.90;;;;;;4123172;28;20030;-65
2021/09/01 08:58:46;;;;;;;1.80;0.52;;;19.10;99.90;;;;;;4123392;28;20105;-64
2021/09/01 09:00:47;;;;;;;0.90;0.60;;;19.20;99.90;;;;;;4123175;28;20514;-64
2021/09/01 09:02:55;;;;;;;0.70;0.70;;;19.10;99.90;;;;;;4123187;28;20046;-64
2021/09/01 09:04:57;;;;;;;1.55;0.77;;;18.90;99.90;;;;;;4123516;28;20077;-64
2021/09/01 09:07:00;;;;;;;0.68;0.60;;;18.80;99.90;;;;;;4123235;28;20046;-64
2021/09/01 09:09:15;;;;;;;1.00;0.82;;;18.70;99.90;;;;;;4123659;28;20445;-65
2021/09/01 09:11:17;;;;;;;2.17;0.80;;;18.70;99.90;;;;;;4123268;28;20076;-63
2021/09/01 09:13:34;;;;;;;1.02;0.70;;;18.70;99.90;;;;;;4123853;28;20088;-64
2021/09/01 09:15:36;;;;;;;1.40;0.75;;;18.70;99.90;;;;;;4123406;28;20435;-63
2021/09/01 09:17:37;;;;;;;0.90;0.80;;;18.60;99.90;;;;;;4124051;28;20031;-65
2021/09/01 09:19:44;;;;;;;1.67;1.10;;;18.70;99.90;;;;;;4123222;28;20038;-63
2021/09/01 09:21:45;;;;;;;2.08;0.93;;;18.80;99.90;;;;;;4124014;28;20038;-63
2021/09/01 09:23:49;;;;;;;1.10;1.00;;;18.80;99.90;;;;;;4122433;28;20077;-63
2021/09/01 09:25:50;;;;;;;1.58;0.98;;;18.70;99.90;;;;;;4123658;28;20551;-63
2021/09/01 09:28:00;;;;;;;1.25;1.15;;;18.70;99.90;;;;;;4122855;28;20042;-63
2021/09/01 09:30:01;;;;;;;1.52;1.00;;;18.70;99.90;;;;;;4122833;28;20042;-62
2021/09/01 09:32:06;;;;;;;1.38;0.98;;;18.60;99.90;;;;;;4122741;28;20398;-63
2021/09/01 09:34:12;;;;;;;2.05;0.90;;;18.60;99.90;;;;;;4124791;28;20043;-64
2021/09/01 09:36:13;;;;;;;3.05;0.65;;;18.60;99.90;;;;;;4125845;28;20316;-64
2021/09/01 09:38:17;;;;;;;0.90;0.90;;;18.60;99.90;;;;;;4126785;28;20022;-63
2021/09/01 09:40:18;;;;;;;1.63;0.82;;;18.50;99.90;;;;;;4125194;28;20038;-63
2021/09/01 09:42:40;;;;;;;0.93;0.80;;;18.50;99.90;;;;;;4126711;28;20046;-64
2021/09/01 09:44:41;;;;;;;2.47;0.77;;;18.60;99.90;;;;;;4125097;28;20092;-63
2021/09/01 09:46:49;;;;;;;1.02;0.93;;;18.60;99.90;;;;;;4126282;28;20042;-63
2021/09/01 09:48:51;;;;;;;2.13;0.85;;;18.60;99.90;;;;;;4125040;28;20394;-64
2021/09/01 09:50:52;;;;;;;0.93;0.90;;;18.60;99.90;;;;;;4126253;28;20466;-63
2021/09/01 09:52:53;;;;;;;2.50;0.73;;;18.50;99.90;;;;;;4123904;28;20449;-63
2021/09/01 09:54:55;;;;;;;3.55;0.77;;;18.50;99.90;;;;;;4126033;28;20034;-64
2021/09/01 09:57:07;;;;;;;2.25;0.93;;;18.60;99.90;;;;;;4125282;28;20549;-64
2021/09/01 09:59:15;;;;;;;0.77;0.77;;;18.60;99.90;;;;;;4125528;28;20066;-63
2021/09/01 10:01:18;;;;;;;0.80;0.80;;;18.50;99.90;;;;;;4125582;28;20469;-62
2021/09/01 10:03:19;;;;;;;2.30;0.95;;;18.60;99.90;;;;;;4125132;28;20038;-63
2021/09/01 10:05:23;;;;;;;3.78;1.83;;;18.60;99.90;;;;;;4125644;28;20092;-62
2021/09/01 10:07:24;;;;;;;2.70;0.80;;;18.70;99.90;;;;;;4125086;28;20518;-63
2021/09/01 10:09:25;;;;;;;3.63;0.75;;;18.80;99.90;;;;;;4125978;28;20034;-63
2021/09/01 10:11:26;;;;;;;1.17;1.00;;;18.80;99.90;;;;;;4123243;28;20222;-63
2021/09/01 10:13:29;;;;;;;1.55;1.00;;;18.90;99.90;;;;;;4126490;28;20085;-63
2021/09/01 10:15:35;;;;;;;0.80;0.80;;;19.10;99.90;;;;;;4124839;28;20442;-62
2021/09/01 10:17:39;;;;;;;1.55;0.85;;;19.30;99.90;;;;;;4125576;28;20085;-63
2021/09/01 10:19:43;;;;;;;1.38;1.02;;;19.50;99.90;;;;;;4124581;28;20054;-63
2021/09/01 10:21:50;;;;;;;1.10;0.80;;;19.60;99.90;;;;;;4126143;28;20030;-63
2021/09/01 10:23:51;;;;;;;3.40;0.82;;;19.50;99.90;;;;;;4125033;28;20152;-63
2021/09/01 10:25:53;;;;;;;2.20;1.00;;;19.30;99.90;;;;;;4125874;28;20438;-63
2021/09/01 10:28:23;;;;;;;2.25;1.48;;;19.10;99.90;;;;;;4124115;28;20141;-63
2021/09/01 10:30:24;;;;;;;1.10;1.00;;;19.10;99.90;;;;;;4125523;28;20034;-63
2021/09/01 10:32:40;;;;;;;1.00;0.90;;;19.00;99.90;;;;;;4123896;28;20318;-63
2021/09/01 10:34:41;;;;;;;1.20;1.10;;;19.00;99.90;;;;;;4125991;28;20092;-63